createdAt,value
2023-05-22T09:10:52.751Z,26.90
2023-05-22T09:17:22.138Z,27.00
2023-05-22T09:20:23.367Z,27.00
2023-05-22T09:23:30.829Z,27.00
2023-05-22T09:26:21.696Z,27.00
2023-05-22T09:28:55.720Z,27.10
2023-05-22T09:35:56.448Z,27.00
2023-05-22T09:38:28.161Z,27.10
2023-05-22T09:40:56.900Z,27.10
2023-05-22T09:43:28.779Z,27.00
2023-05-22T09:46:02.327Z,27.00
2023-05-22T09:48:38.697Z,26.90
2023-05-22T09:51:07.961Z,26.90
2023-05-22T09:53:42.579Z,27.00
2023-05-22T09:56:19.238Z,27.00
2023-05-22T09:58:53.167Z,27.00
2023-05-22T10:01:34.399Z,27.00
2023-05-22T10:04:25.134Z,27.00
2023-05-22T10:07:04.449Z,27.10
2023-05-22T10:09:41.093Z,27.20
2023-05-22T10:12:12.428Z,27.20
2023-05-22T10:14:54.794Z,27.20
2023-05-22T10:17:49.792Z,27.20
2023-05-22T10:20:30.537Z,27.20
2023-05-22T10:23:16.777Z,27.20
2023-05-22T10:25:46.325Z,27.30
2023-05-22T10:28:22.096Z,27.30
2023-05-22T10:31:32.689Z,27.40
2023-05-22T10:34:39.626Z,27.40
2023-05-22T10:37:32.383Z,27.50
2023-05-22T10:40:18.340Z,27.40
2023-05-22T10:45:37.144Z,27.30
2023-05-22T10:48:09.986Z,27.40
2023-05-22T10:50:39.890Z,27.50
2023-05-22T10:53:32.655Z,27.40
2023-05-22T10:56:32.925Z,27.50
2023-05-22T10:59:12.452Z,27.60
2023-05-22T11:01:43.068Z,27.60
2023-05-22T11:04:42.463Z,27.60
2023-05-22T11:08:14.870Z,27.60
2023-05-22T11:11:16.613Z,27.60
2023-05-22T11:14:21.440Z,27.60
2023-05-22T11:20:37.620Z,27.70
2023-05-22T11:26:33.779Z,27.80
2023-05-22T11:32:35.806Z,27.80
2023-05-22T11:35:11.063Z,27.80
2023-05-22T11:37:45.540Z,27.90
2023-05-22T11:41:17.505Z,27.80
2023-05-22T11:43:58.165Z,27.80
2023-05-22T11:46:29.692Z,27.90
2023-05-22T11:48:57.761Z,27.90
2023-05-22T11:51:25.594Z,27.90
2023-05-22T11:53:58.900Z,27.90
2023-05-22T11:57:00.346Z,28.00
2023-05-22T12:07:33.454Z,28.10
2023-05-22T12:10:11.699Z,28.10
2023-05-22T12:12:51.706Z,28.00
2023-05-22T12:15:41.280Z,28.00
2023-05-22T12:18:52.069Z,28.00
2023-05-22T12:21:23.007Z,28.10
2023-05-22T12:23:57.077Z,28.10
2023-05-22T12:31:02.941Z,28.10
2023-05-22T12:33:36.688Z,28.00
2023-05-22T12:36:08.490Z,28.00
2023-05-22T12:38:42.400Z,28.00
2023-05-22T12:44:14.056Z,28.00
2023-05-22T12:47:01.050Z,28.00
2023-05-22T12:49:54.287Z,27.80
2023-05-22T12:57:06.074Z,28.00
2023-05-22T12:59:53.535Z,28.20
2023-05-22T13:03:01.093Z,28.20
2023-05-22T13:05:48.997Z,28.10
2023-05-22T13:08:33.952Z,27.90
2023-05-22T13:11:30.147Z,27.80
2023-05-22T13:18:45.235Z,27.90
2023-05-22T13:25:00.765Z,28.00
2023-05-22T13:30:47.224Z,28.00
2023-05-22T13:36:55.680Z,28.10
2023-05-22T13:39:54.530Z,28.30
2023-05-22T13:42:56.062Z,28.30
2023-05-22T13:45:27.673Z,28.30
2023-05-22T13:47:55.529Z,28.30
2023-05-22T13:50:23.485Z,28.30
2023-05-22T13:52:57.474Z,28.30
2023-05-22T13:55:43.690Z,28.20
2023-05-22T13:58:19.900Z,28.20
2023-05-22T14:00:53.165Z,28.10
2023-05-22T14:03:25.874Z,28.20
2023-05-22T14:05:56.767Z,28.10
2023-05-22T14:08:37.918Z,28.10
2023-05-22T14:13:58.256Z,28.20
2023-05-22T14:19:34.988Z,28.30
2023-05-22T14:22:06.162Z,28.30
2023-05-22T14:24:34.351Z,28.30
2023-05-22T14:27:04.558Z,28.40
2023-05-22T14:29:35.454Z,28.30
2023-05-22T14:32:06.406Z,28.30
2023-05-22T14:38:57.347Z,28.40
2023-05-22T14:41:25.190Z,28.50
2023-05-22T14:44:29.163Z,28.50
2023-05-22T14:46:54.902Z,28.40
2023-05-22T14:49:27.341Z,28.30
2023-05-22T14:51:55.219Z,28.30
2023-05-22T14:54:35.307Z,28.30
2023-05-22T14:57:03.213Z,28.40
2023-05-22T14:59:32.075Z,28.40
2023-05-22T15:02:00.035Z,28.30
2023-05-22T15:04:33.879Z,28.30
2023-05-22T15:07:08.154Z,28.30
2023-05-22T15:09:56.000Z,28.30
2023-05-22T15:12:24.021Z,28.40
2023-05-22T15:14:51.951Z,28.40
2023-05-22T15:17:36.440Z,28.50
2023-05-22T15:20:07.765Z,28.40
2023-05-22T15:22:43.134Z,28.40
2023-05-22T15:25:19.995Z,28.40
2023-05-22T15:27:54.616Z,28.40
2023-05-22T15:30:27.583Z,28.30
2023-05-22T15:33:28.247Z,28.30
2023-05-22T15:35:58.454Z,28.30
2023-05-22T15:38:35.537Z,28.30
2023-05-22T15:41:04.023Z,28.40
2023-05-22T15:43:54.595Z,28.40
2023-05-22T15:46:31.330Z,28.40
2023-05-22T15:49:15.986Z,28.40
2023-05-22T15:51:53.169Z,28.40
2023-05-22T15:54:38.891Z,28.40
2023-05-22T15:57:06.931Z,28.50
2023-05-22T15:59:37.330Z,28.40
2023-05-22T16:02:36.688Z,28.40
2023-05-22T16:08:01.957Z,28.50
2023-05-22T16:10:34.230Z,28.50
2023-05-22T16:13:11.832Z,28.50
2023-05-22T16:15:44.058Z,28.50
2023-05-22T16:18:42.019Z,28.50
2023-05-22T16:21:10.169Z,28.60
2023-05-22T16:23:47.595Z,28.60
2023-05-22T16:26:15.923Z,28.60
2023-05-22T16:28:46.903Z,28.60
2023-05-22T16:31:19.481Z,28.60
2023-05-22T16:34:36.280Z,28.60
2023-05-22T16:37:07.393Z,28.60
2023-05-22T16:39:56.588Z,28.50
2023-05-22T16:42:42.585Z,28.50
2023-05-22T16:45:23.487Z,28.50
2023-05-22T16:52:06.854Z,28.40
2023-05-22T16:54:37.178Z,28.40
2023-05-22T16:57:09.987Z,28.40
2023-05-22T16:59:40.862Z,28.40
2023-05-22T17:02:09.042Z,28.40
2023-05-22T17:04:41.797Z,28.30
2023-05-22T17:07:10.048Z,28.40
2023-05-22T17:09:58.442Z,28.30
2023-05-22T17:12:33.704Z,28.30
2023-05-22T17:15:10.121Z,28.20
2023-05-22T17:17:47.231Z,28.20
2023-05-22T17:20:42.277Z,28.20
2023-05-22T17:23:12.463Z,28.10
2023-05-22T17:26:05.468Z,28.00
2023-05-22T17:28:34.140Z,28.00
2023-05-22T17:31:05.297Z,28.00
2023-05-22T17:33:44.965Z,27.80
2023-05-22T17:36:41.506Z,27.80
2023-05-22T17:42:08.605Z,27.70
2023-05-22T17:44:45.399Z,27.70
2023-05-22T17:47:21.140Z,27.70
2023-05-22T17:50:14.233Z,27.70
2023-05-22T17:52:50.795Z,27.70
2023-05-22T17:55:22.818Z,27.70
2023-05-22T17:57:55.588Z,27.60
2023-05-22T18:03:38.807Z,27.60
2023-05-22T18:09:32.252Z,27.40
2023-05-22T18:13:40.492Z,27.40
2023-05-22T18:16:11.426Z,27.10
2023-05-22T18:19:11.689Z,26.80
2023-05-22T18:21:45.301Z,26.50
2023-05-22T18:24:36.586Z,26.30
2023-05-22T18:27:58.148Z,26.30
2023-05-22T18:30:59.050Z,26.20
2023-05-22T18:33:31.710Z,26.30
2023-05-22T18:36:03.328Z,26.30
2023-05-22T18:38:51.261Z,26.20
2023-05-22T18:41:38.809Z,26.00
2023-05-22T18:44:19.506Z,26.00
2023-05-22T18:46:57.024Z,25.80
2023-05-22T18:49:57.891Z,25.60
2023-05-22T18:52:28.038Z,25.60
2023-05-22T18:55:08.385Z,25.60
2023-05-22T18:57:53.020Z,25.50
2023-05-22T19:00:24.322Z,25.20
2023-05-22T19:07:35.430Z,25.30
2023-05-22T19:10:31.065Z,25.20
2023-05-22T19:13:11.126Z,25.00
2023-05-22T19:15:49.505Z,25.10
2023-05-22T19:18:19.713Z,25.00
2023-05-22T19:20:49.365Z,24.90
2023-05-22T19:23:19.737Z,24.70
2023-05-22T19:25:55.177Z,24.60
2023-05-22T19:28:31.947Z,24.50
2023-05-22T19:31:13.815Z,24.40
2023-05-22T19:34:11.156Z,24.40
2023-05-22T19:36:46.467Z,24.40
2023-05-22T19:39:23.301Z,24.50
2023-05-22T19:42:07.814Z,24.40
2023-05-22T19:44:43.930Z,24.30
2023-05-22T19:47:34.775Z,24.20
2023-05-22T19:50:14.576Z,24.20
2023-05-22T19:52:47.117Z,24.10
2023-05-22T19:55:43.318Z,24.00
